createdAt,value
2018-03-20T00:00:53.894Z,75.90
2018-03-20T00:04:17.177Z,76.10
2018-03-20T00:07:40.463Z,76.00
2018-03-20T00:11:03.738Z,74.70
2018-03-20T00:14:27.020Z,74.70
2018-03-20T00:17:50.309Z,74.50
2018-03-20T00:21:13.598Z,74.40
2018-03-20T00:24:36.883Z,74.40
2018-03-20T00:28:00.173Z,74.60
2018-03-20T00:31:23.438Z,74.00
2018-03-20T00:34:46.738Z,74.70
2018-03-20T00:38:10.104Z,74.00
2018-03-20T00:41:33.369Z,74.40
2018-03-20T00:44:56.676Z,73.90
2018-03-20T00:48:20.043Z,74.30
2018-03-20T00:51:43.373Z,74.10
2018-03-20T00:55:06.665Z,74.80
2018-03-20T00:58:29.952Z,74.00
2018-03-20T01:01:53.241Z,75.80
2018-03-20T01:05:16.505Z,75.00
2018-03-20T01:08:39.804Z,74.50
2018-03-20T01:12:03.161Z,73.70
2018-03-20T01:15:26.428Z,74.50
2018-03-20T01:18:49.806Z,74.90
2018-03-20T01:22:13.095Z,74.80
2018-03-20T01:25:36.379Z,74.90
2018-03-20T01:28:59.707Z,75.50
2018-03-20T01:32:23.013Z,75.40
2018-03-20T01:35:46.283Z,75.50
2018-03-20T01:39:09.567Z,75.20
2018-03-20T01:42:32.851Z,75.60
2018-03-20T01:45:56.168Z,76.00
2018-03-20T01:49:19.487Z,76.60
2018-03-20T01:52:42.795Z,77.10
2018-03-20T01:56:06.077Z,76.80
2018-03-20T01:59:29.352Z,77.50
2018-03-20T02:02:52.620Z,77.00
2018-03-20T02:06:15.915Z,78.80
2018-03-20T02:09:39.204Z,77.10
2018-03-20T02:13:03.276Z,78.10
2018-03-20T02:16:26.572Z,78.00
2018-03-20T02:19:49.856Z,77.70
2018-03-20T02:23:13.119Z,77.30
2018-03-20T02:26:37.164Z,77.40
2018-03-20T02:30:00.520Z,77.30
2018-03-20T02:33:23.844Z,77.50
2018-03-20T02:36:47.922Z,77.90
2018-03-20T02:40:11.965Z,76.60
2018-03-20T02:43:35.331Z,76.50
2018-03-20T02:46:58.598Z,76.60
2018-03-20T02:50:21.884Z,77.20
2018-03-20T02:53:45.159Z,76.80
2018-03-20T02:57:08.470Z,76.90
2018-03-20T03:00:31.744Z,76.60
2018-03-20T03:03:55.024Z,77.40
2018-03-20T03:07:18.313Z,77.60
2018-03-20T03:10:41.583Z,76.50
2018-03-20T03:14:04.902Z,76.80
2018-03-20T03:17:28.323Z,76.90
2018-03-20T03:20:51.599Z,77.70
2018-03-20T03:24:14.873Z,77.70
2018-03-20T03:27:38.154Z,76.70
2018-03-20T03:31:01.458Z,76.80
2018-03-20T03:34:24.732Z,77.00
2018-03-20T03:37:48.011Z,77.40
2018-03-20T03:41:11.291Z,77.20
2018-03-20T03:44:34.572Z,77.20
2018-03-20T03:47:58.654Z,77.20
2018-03-20T03:51:21.947Z,77.20
2018-03-20T03:54:45.219Z,76.90
2018-03-20T03:58:08.567Z,76.40
2018-03-20T04:01:32.607Z,76.50
2018-03-20T04:04:55.878Z,76.40
2018-03-20T04:08:19.163Z,76.30
2018-03-20T04:11:42.455Z,76.70
2018-03-20T04:15:05.767Z,76.20
2018-03-20T04:18:29.087Z,76.00
2018-03-20T04:21:52.396Z,75.80
2018-03-20T04:25:15.738Z,76.30
2018-03-20T04:28:39.007Z,75.70
2018-03-20T04:32:02.327Z,75.80
2018-03-20T04:35:25.688Z,76.20
2018-03-20T04:38:49.024Z,75.40
2018-03-20T04:42:12.311Z,75.40
2018-03-20T04:45:35.619Z,75.80
2018-03-20T04:48:58.939Z,75.30
2018-03-20T04:52:22.221Z,75.00
2018-03-20T04:55:45.567Z,75.30
2018-03-20T04:59:09.685Z,75.50
2018-03-20T05:02:34.119Z,75.30
2018-03-20T05:05:57.401Z,74.60
2018-03-20T05:09:20.778Z,75.00
2018-03-20T05:12:44.121Z,74.50
2018-03-20T05:16:07.410Z,74.50
2018-03-20T05:23:32.048Z,74.90
2018-03-20T05:26:56.182Z,76.10
2018-03-20T05:30:19.547Z,75.90
2018-03-20T05:33:43.622Z,74.50
2018-03-20T05:37:06.999Z,74.30
2018-03-20T05:40:31.111Z,74.50
2018-03-20T05:43:54.465Z,74.40
2018-03-20T05:47:32.367Z,75.30
2018-03-20T05:51:01.543Z,76.60
2018-03-20T05:54:25.538Z,75.60
2018-03-20T05:57:49.092Z,75.80
2018-03-20T06:01:13.200Z,76.30
2018-03-20T06:04:36.497Z,76.20
2018-03-20T06:07:59.867Z,75.20
2018-03-20T06:11:23.211Z,75.90
2018-03-20T06:14:55.912Z,75.10
2018-03-20T06:18:20.105Z,75.90
2018-03-20T06:21:43.539Z,75.80
2018-03-20T06:25:07.043Z,75.50
2018-03-20T06:28:30.439Z,74.50
2018-03-20T06:31:53.789Z,74.10
2018-03-20T06:35:17.990Z,74.30
2018-03-20T06:38:41.367Z,74.10
2018-03-20T06:42:04.716Z,74.70
2018-03-20T06:45:28.081Z,74.20
2018-03-20T06:48:52.223Z,71.10
2018-03-20T06:52:15.593Z,70.90
2018-03-20T06:55:39.747Z,69.70
2018-03-20T06:59:03.845Z,68.70
2018-03-20T07:02:27.895Z,68.60
2018-03-20T07:05:51.259Z,68.60
2018-03-20T07:09:14.618Z,68.40
2018-03-20T07:12:38.726Z,68.10
2018-03-20T07:16:02.829Z,67.60
2018-03-20T07:19:26.179Z,67.60
2018-03-20T07:22:49.534Z,68.40
2018-03-20T07:26:12.981Z,68.10
2018-03-20T07:29:37.179Z,67.30
2018-03-20T07:33:02.401Z,66.70
2018-03-20T07:36:26.466Z,66.70
2018-03-20T07:39:50.490Z,66.70
2018-03-20T07:43:13.796Z,65.20
2018-03-20T07:46:37.201Z,64.80
2018-03-20T07:50:00.598Z,64.40
2018-03-20T07:56:56.475Z,64.20
2018-03-20T08:00:19.802Z,63.70
2018-03-20T08:03:43.451Z,62.70
2018-03-20T08:07:07.612Z,61.90
2018-03-20T08:10:30.947Z,61.80
2018-03-20T08:13:54.231Z,60.00
2018-03-20T08:17:19.006Z,61.30
2018-03-20T08:20:43.125Z,60.10
2018-03-20T08:24:06.395Z,60.10
2018-03-20T08:27:29.671Z,59.60
2018-03-20T08:30:54.108Z,59.10
2018-03-20T08:34:18.466Z,58.90
2018-03-20T08:37:41.783Z,59.10
2018-03-20T08:41:05.110Z,58.30
2018-03-20T08:44:28.416Z,57.30
2018-03-20T08:47:52.580Z,56.00
2018-03-20T08:51:15.969Z,56.00
2018-03-20T08:54:40.173Z,56.80
2018-03-20T08:58:04.002Z,56.60
2018-03-20T09:01:27.291Z,55.30
2018-03-20T09:04:50.623Z,55.30
2018-03-20T09:08:13.896Z,54.70
2018-03-20T09:11:37.161Z,54.90
2018-03-20T09:15:01.208Z,55.10
2018-03-20T09:18:24.479Z,55.10
2018-03-20T09:21:47.759Z,55.70
2018-03-20T09:25:11.035Z,53.90
2018-03-20T09:28:34.324Z,54.70
2018-03-20T09:31:57.647Z,55.00
2018-03-20T09:35:20.963Z,55.30
2018-03-20T09:38:44.224Z,55.80
2018-03-20T09:42:08.259Z,54.60
2018-03-20T09:45:31.531Z,54.50
2018-03-20T09:48:55.565Z,53.80
2018-03-20T09:52:18.850Z,53.80
2018-03-20T09:55:42.340Z,52.70
2018-03-20T09:59:05.612Z,52.20
2018-03-20T10:02:28.928Z,52.20
2018-03-20T10:05:52.203Z,52.50
2018-03-20T10:09:15.471Z,52.50
2018-03-20T10:12:38.762Z,52.00
2018-03-20T10:16:02.107Z,52.00
2018-03-20T10:19:26.197Z,50.10
2018-03-20T10:22:50.299Z,48.30
2018-03-20T10:26:13.602Z,48.30
2018-03-20T10:29:36.908Z,49.90
2018-03-20T10:33:00.161Z,47.40
2018-03-20T10:36:27.089Z,46.90
2018-03-20T10:39:50.491Z,46.30
2018-03-20T10:43:13.747Z,47.90
2018-03-20T10:46:37.803Z,46.90
2018-03-20T10:50:01.095Z,46.80
2018-03-20T10:53:24.371Z,47.60
2018-03-20T10:56:47.686Z,47.00
2018-03-20T11:00:10.973Z,47.40
2018-03-20T11:03:35.020Z,45.80
2018-03-20T11:06:58.274Z,45.80
2018-03-20T11:10:21.562Z,47.00
2018-03-20T11:13:45.605Z,47.60
2018-03-20T11:17:08.887Z,47.50
2018-03-20T11:20:32.161Z,46.30
2018-03-20T11:23:55.421Z,47.30
2018-03-20T11:27:19.473Z,49.40
2018-03-20T11:30:42.753Z,49.30
2018-03-20T11:34:06.026Z,47.10
2018-03-20T11:37:29.380Z,46.80
2018-03-20T11:40:52.674Z,46.50
2018-03-20T11:44:15.942Z,46.00
2018-03-20T11:47:39.213Z,47.10
2018-03-20T11:51:02.495Z,46.60
2018-03-20T11:54:26.533Z,47.20
2018-03-20T11:57:49.789Z,47.10
2018-03-20T12:01:13.858Z,47.50
2018-03-20T12:04:37.143Z,47.40
2018-03-20T12:08:19.179Z,47.90
2018-03-20T12:11:42.591Z,47.90
2018-03-20T12:15:05.855Z,47.40
2018-03-20T12:18:29.135Z,48.00
2018-03-20T12:21:52.407Z,48.60
2018-03-20T12:25:16.504Z,49.30
2018-03-20T12:28:39.707Z,49.30
2018-03-20T12:32:02.979Z,49.10
2018-03-20T12:35:27.022Z,48.30
2018-03-20T12:38:50.297Z,48.30
2018-03-20T12:42:13.585Z,48.10
2018-03-20T12:45:36.845Z,46.80
2018-03-20T12:49:00.881Z,45.30
2018-03-20T12:52:24.137Z,45.30
2018-03-20T12:55:47.535Z,44.70
2018-03-20T12:59:10.823Z,45.00
2018-03-20T13:02:34.110Z,45.50
2018-03-20T13:05:57.377Z,46.50
2018-03-20T13:09:20.645Z,46.10
2018-03-20T13:12:44.692Z,45.60
2018-03-20T13:16:07.965Z,45.50
2018-03-20T13:19:31.229Z,45.20
2018-03-20T13:22:54.511Z,45.10
2018-03-20T13:26:17.802Z,44.60
2018-03-20T13:29:41.098Z,44.00
2018-03-20T13:33:04.380Z,43.90
2018-03-20T13:36:27.652Z,43.50
2018-03-20T13:39:51.756Z,43.40
2018-03-20T13:43:15.039Z,43.40
2018-03-20T13:46:38.398Z,43.90
2018-03-20T13:50:01.744Z,42.40
2018-03-20T13:53:27.958Z,42.30
2018-03-20T13:56:51.254Z,43.40
2018-03-20T14:00:14.547Z,43.20
2018-03-20T14:03:38.581Z,42.40
2018-03-20T14:07:04.490Z,42.30
2018-03-20T14:10:27.941Z,41.40
2018-03-20T14:13:51.317Z,42.90
2018-03-20T14:17:15.447Z,43.60
2018-03-20T14:20:38.787Z,43.00
2018-03-20T14:24:02.271Z,42.00
2018-03-20T14:27:27.656Z,42.00
2018-03-20T14:30:51.833Z,42.60
2018-03-20T14:34:15.252Z,42.60
2018-03-20T14:37:47.485Z,42.10
2018-03-20T14:41:13.362Z,41.90
2018-03-20T14:44:36.738Z,41.80
2018-03-20T14:48:02.033Z,40.30
2018-03-20T14:51:25.327Z,40.30
2018-03-20T14:54:49.472Z,41.40
2018-03-20T14:58:12.827Z,41.30
2018-03-20T15:01:36.210Z,41.40
2018-03-20T15:05:00.383Z,40.50
2018-03-20T15:08:24.672Z,40.40
2018-03-20T15:11:48.880Z,41.20
2018-03-20T15:15:12.151Z,41.10
2018-03-20T15:18:35.448Z,40.90
2018-03-20T15:21:58.730Z,41.00
2018-03-20T15:25:22.899Z,40.20
2018-03-20T15:28:46.957Z,38.30
2018-03-20T15:32:10.232Z,38.10
2018-03-20T15:35:33.536Z,39.10
2018-03-20T15:38:56.868Z,39.00
2018-03-20T15:42:20.134Z,39.60
2018-03-20T15:45:44.198Z,39.20
2018-03-20T15:49:07.527Z,39.20
2018-03-20T15:52:30.797Z,40.30
2018-03-20T15:55:54.067Z,40.70
2018-03-20T15:59:18.094Z,40.90
2018-03-20T16:02:41.383Z,40.70
2018-03-20T16:06:04.644Z,40.80
2018-03-20T16:09:28.876Z,40.90
2018-03-20T16:12:52.912Z,41.50
2018-03-20T16:16:16.185Z,41.40
2018-03-20T16:19:39.458Z,40.60
2018-03-20T16:23:03.491Z,43.20
2018-03-20T16:26:26.749Z,43.20
2018-03-20T16:29:50.791Z,43.30
2018-03-20T16:33:14.084Z,43.20
2018-03-20T16:36:37.430Z,45.30
2018-03-20T16:40:00.679Z,44.50
2018-03-20T16:43:24.857Z,44.80
2018-03-20T16:46:48.113Z,44.70
2018-03-20T16:50:12.185Z,44.20
2018-03-20T16:53:35.445Z,44.20
2018-03-20T16:56:58.714Z,48.70
2018-03-20T17:00:22.027Z,52.10
2018-03-20T17:03:46.026Z,55.00
2018-03-20T17:07:10.154Z,56.80
2018-03-20T17:10:34.226Z,57.90
2018-03-20T17:13:58.340Z,57.80
2018-03-20T17:17:21.656Z,57.10
2018-03-20T17:20:45.451Z,57.50
2018-03-20T17:24:08.801Z,58.90
2018-03-20T17:27:32.059Z,59.00
2018-03-20T17:30:56.189Z,58.90
2018-03-20T17:34:19.463Z,58.90
2018-03-20T17:37:44.418Z,59.70
2018-03-20T17:41:07.712Z,64.20
2018-03-20T17:44:30.979Z,63.00
2018-03-20T17:47:54.282Z,62.80
2018-03-20T17:51:19.843Z,60.70
2018-03-20T17:54:43.523Z,60.70
2018-03-20T17:58:08.010Z,60.20
2018-03-20T18:01:31.440Z,63.90
2018-03-20T18:04:55.530Z,64.30
2018-03-20T18:08:18.944Z,67.50
2018-03-20T18:11:44.198Z,70.40
2018-03-20T18:15:09.845Z,70.30
2018-03-20T18:18:33.117Z,71.10
2018-03-20T18:21:56.376Z,71.40
2018-03-20T18:25:20.447Z,73.20
2018-03-20T18:28:44.491Z,74.10
2018-03-20T18:32:10.110Z,73.90
2018-03-20T18:35:33.435Z,74.70
2018-03-20T18:38:57.621Z,74.80
2018-03-20T18:42:21.063Z,74.60
2018-03-20T18:45:45.099Z,74.30
2018-03-20T18:49:09.249Z,76.00
2018-03-20T18:52:34.272Z,75.80
2018-03-20T18:55:57.610Z,77.40
2018-03-20T18:59:20.995Z,79.30
2018-03-20T19:02:45.071Z,83.90
2018-03-20T19:06:08.361Z,83.80
2018-03-20T19:09:32.760Z,84.90
2018-03-20T19:12:56.108Z,84.60
2018-03-20T19:16:20.268Z,84.80
2018-03-20T19:19:44.415Z,83.10
2018-03-20T19:23:08.496Z,84.10
2018-03-20T19:26:32.553Z,82.70
2018-03-20T19:29:55.968Z,82.70
2018-03-20T19:33:19.271Z,82.80
2018-03-20T19:36:42.762Z,80.40
2018-03-20T19:40:06.891Z,81.20
2018-03-20T19:43:31.011Z,83.20
2018-03-20T19:46:55.395Z,83.20
2018-03-20T19:50:20.662Z,83.30
2018-03-20T19:53:45.043Z,83.70
2018-03-20T19:57:09.080Z,81.50
2018-03-20T20:00:32.346Z,81.40
2018-03-20T20:03:55.660Z,81.60
2018-03-20T20:07:19.208Z,82.40
2018-03-20T20:10:43.313Z,82.60
2018-03-20T20:14:07.912Z,82.40
2018-03-20T20:17:32.770Z,83.00
2018-03-20T20:20:57.256Z,82.10
2018-03-20T20:24:20.626Z,79.60
2018-03-20T20:27:45.505Z,80.10
2018-03-20T20:31:10.688Z,79.60
2018-03-20T20:34:34.760Z,79.30
2018-03-20T20:37:59.594Z,79.30
2018-03-20T20:41:23.645Z,79.50
2018-03-20T20:44:46.954Z,79.40
2018-03-20T20:48:11.034Z,78.70
2018-03-20T20:51:35.173Z,79.50
2018-03-20T20:55:00.513Z,79.30
2018-03-20T20:58:24.609Z,83.20
2018-03-20T21:01:47.895Z,83.10
2018-03-20T21:05:11.968Z,78.10
2018-03-20T21:08:36.016Z,77.50
2018-03-20T21:12:00.384Z,77.30
2018-03-20T21:15:23.717Z,80.00
2018-03-20T21:18:47.817Z,77.90
2018-03-20T21:22:11.110Z,78.00
2018-03-20T21:25:34.380Z,76.80
2018-03-20T21:28:57.686Z,78.40
2018-03-20T21:32:20.962Z,80.20
2018-03-20T21:35:44.261Z,79.10
2018-03-20T21:39:07.631Z,79.70
2018-03-20T21:42:31.678Z,78.20
2018-03-20T21:45:54.997Z,78.10
2018-03-20T21:49:18.329Z,79.00
2018-03-20T21:52:41.611Z,79.30
2018-03-20T21:56:04.983Z,81.30
2018-03-20T21:59:28.335Z,81.30
2018-03-20T22:02:51.642Z,81.80
2018-03-20T22:06:15.117Z,81.00
2018-03-20T22:09:38.409Z,80.50
2018-03-20T22:13:01.751Z,80.70
2018-03-20T22:16:25.041Z,80.70
2018-03-20T22:19:48.310Z,80.50
2018-03-20T22:23:11.609Z,80.80
2018-03-20T22:26:34.987Z,80.90
2018-03-20T22:30:04.620Z,82.70
2018-03-20T22:33:28.073Z,81.10
2018-03-20T22:36:51.354Z,81.00
2018-03-20T22:40:14.717Z,81.20
2018-03-20T22:43:38.023Z,80.30
2018-03-20T22:47:01.404Z,80.00
2018-03-20T22:50:25.518Z,79.50
2018-03-20T22:53:55.089Z,79.40
2018-03-20T22:57:19.191Z,80.80
2018-03-20T23:00:42.814Z,80.70
2018-03-20T23:04:06.194Z,81.00
2018-03-20T23:07:29.467Z,81.00
2018-03-20T23:10:52.795Z,81.70
2018-03-20T23:14:16.063Z,80.90
2018-03-20T23:17:39.421Z,81.90
2018-03-20T23:21:02.698Z,81.70
2018-03-20T23:24:26.686Z,82.10
2018-03-20T23:27:50.740Z,81.80
2018-03-20T23:31:14.043Z,81.60
2018-03-20T23:34:38.093Z,83.00
2018-03-20T23:38:01.378Z,83.00
2018-03-20T23:41:24.803Z,81.40
2018-03-20T23:44:48.095Z,81.90
2018-03-20T23:48:11.363Z,81.30
2018-03-20T23:51:34.627Z,81.50
2018-03-20T23:54:58.691Z,81.60
2018-03-20T23:58:21.959Z,81.60
